createdAt,value
2022-08-29T00:01:06.355Z,-26.1
2022-08-29T00:03:08.411Z,-26
2022-08-29T00:05:09.040Z,-26.2
2022-08-29T00:09:11.741Z,-25.9
2022-08-29T00:11:12.743Z,-26.1
2022-08-29T00:13:14.536Z,-25.9
2022-08-29T00:15:16.326Z,-25.9
2022-08-29T00:17:18.021Z,-26.2
2022-08-29T00:19:19.403Z,-26.1
2022-08-29T00:21:20.301Z,-26
2022-08-29T00:23:21.235Z,-26.2
2022-08-29T00:25:22.269Z,-25.9
2022-08-29T00:27:23.497Z,-25.9
2022-08-29T00:29:25.371Z,-25.8
2022-08-29T00:31:26.274Z,-25.9
2022-08-29T00:33:27.294Z,-25.9
2022-08-29T00:39:32.552Z,-26.1
2022-08-29T00:41:33.269Z,-25.9
2022-08-29T00:43:34.754Z,-25.9
2022-08-29T00:45:36.147Z,-26.1
2022-08-29T00:47:37.661Z,-26.1
2022-08-29T00:49:39.078Z,-25.9
2022-08-29T00:53:41.571Z,-25.7
2022-08-29T00:55:43.011Z,-25.9
2022-08-29T00:57:44.833Z,-26.1
2022-08-29T00:59:46.310Z,-25.9
2022-08-29T01:01:47.442Z,-26
2022-08-29T01:03:49.289Z,-26.1
2022-08-29T01:05:50.427Z,-25.8
2022-08-29T01:07:52.419Z,-26
2022-08-29T01:09:53.350Z,-25.9
2022-08-29T01:11:54.389Z,-25.9
2022-08-29T01:13:55.719Z,-25.8
2022-08-29T01:15:57.442Z,-25.7
2022-08-29T01:20:00.307Z,-25.8
2022-08-29T01:22:01.886Z,-26.1
2022-08-29T01:24:03.432Z,-25.9
2022-08-29T01:26:04.619Z,-25.7
2022-08-29T01:28:06.521Z,-25.9
2022-08-29T01:30:07.770Z,-26
2022-08-29T01:34:10.905Z,-25.9
2022-08-29T01:36:12.349Z,-25.8
2022-08-29T01:40:15.520Z,-26.1
2022-08-29T01:42:16.840Z,-26
2022-08-29T01:44:18.017Z,-26
2022-08-29T01:46:19.871Z,-25.8
2022-08-29T01:48:21.662Z,-26.3
2022-08-29T01:52:24.747Z,-25.9
2022-08-29T01:54:26.053Z,-25.7
2022-08-29T01:56:27.426Z,-25.9
2022-08-29T01:58:28.711Z,-25.8
2022-08-29T02:00:30.512Z,-25.9
2022-08-29T02:02:32.144Z,-25.7
2022-08-29T02:04:33.231Z,-25.9
2022-08-29T02:06:34.360Z,-25.8
2022-08-29T02:08:35.845Z,-25.8
2022-08-29T02:10:37.471Z,-25.9
2022-08-29T02:12:38.975Z,-25.8
2022-08-29T02:14:40.016Z,-25.9
2022-08-29T02:16:41.231Z,-25.9
2022-08-29T02:18:42.406Z,-26
2022-08-29T02:20:43.876Z,-25.9
2022-08-29T02:22:45.614Z,-25.9
2022-08-29T02:24:47.331Z,-25.9
2022-08-29T02:26:48.996Z,-25.9
2022-08-29T02:28:50.493Z,-25.8
2022-08-29T02:30:52.139Z,-26
2022-08-29T02:34:54.445Z,-26
2022-08-29T02:36:56.080Z,-25.9
2022-08-29T02:38:57.962Z,-25.9
2022-08-29T02:40:59.159Z,-25.9
2022-08-29T02:45:02.563Z,-26.1
2022-08-29T02:47:03.858Z,-26
2022-08-29T02:49:05.308Z,-25.7
2022-08-29T02:51:06.379Z,-25.9
2022-08-29T02:53:08.093Z,-25.9
2022-08-29T02:55:09.444Z,-26
2022-08-29T03:01:13.739Z,-25.8
2022-08-29T03:03:15.367Z,-25.9
2022-08-29T03:09:18.906Z,-25.9
2022-08-29T03:11:20.763Z,-25.9
2022-08-29T03:13:22.083Z,-26
2022-08-29T03:15:23.386Z,-25.9
2022-08-29T03:17:24.894Z,-25.8
2022-08-29T03:19:26.417Z,-26.1
2022-08-29T03:21:28.270Z,-26
2022-08-29T03:23:29.963Z,-26.1
2022-08-29T03:29:34.511Z,-26
2022-08-29T03:31:35.884Z,-26.1
2022-08-29T03:33:37.361Z,-25.7
2022-08-29T03:35:39.156Z,-25.9
2022-08-29T03:37:40.812Z,-25.8
2022-08-29T03:41:43.778Z,-26.1
2022-08-29T03:43:45.116Z,-25.9
2022-08-29T03:45:46.949Z,-25.7
2022-08-29T03:51:50.538Z,-25.7
2022-08-29T03:53:51.765Z,-25.9
2022-08-29T03:55:53.043Z,-26.1
2022-08-29T03:57:54.020Z,-25.8
2022-08-29T03:59:55.526Z,-26
2022-08-29T04:01:56.688Z,-25.9
2022-08-29T04:03:58.451Z,-25.9
2022-08-29T04:05:59.535Z,-26
2022-08-29T04:08:01.076Z,-25.6
2022-08-29T04:10:02.959Z,-25.9
2022-08-29T04:12:04.314Z,-25.9
2022-08-29T04:14:05.448Z,-25.7
2022-08-29T04:16:06.934Z,-25.8
2022-08-29T04:18:08.724Z,-25.8
2022-08-29T04:20:10.389Z,-25.8
2022-08-29T04:22:11.960Z,-26.1
2022-08-29T04:28:16.451Z,-25.8
2022-08-29T04:30:18.384Z,-25.9
2022-08-29T04:32:20.104Z,-25.7
2022-08-29T04:34:21.224Z,-25.7
2022-08-29T04:36:22.994Z,-25.9
2022-08-29T04:38:24.329Z,-25.8
2022-08-29T04:40:25.999Z,-25.9
2022-08-29T04:41:35.885Z,-25.7
2022-08-29T04:43:37.671Z,-25.8
2022-08-29T04:49:41.276Z,-25.8
2022-08-29T04:51:42.578Z,-25.8
2022-08-29T04:53:44.322Z,-25.9
2022-08-29T04:55:45.482Z,-25.7
2022-08-29T04:57:46.721Z,-26.1
2022-08-29T04:59:48.679Z,-25.6
2022-08-29T05:01:50.524Z,-25.7
2022-08-29T05:03:52.366Z,-25.8
2022-08-29T05:05:53.825Z,-25.6
2022-08-29T05:07:55.269Z,-25.8
2022-08-29T05:09:56.825Z,-25.6
2022-08-29T05:11:58.452Z,-25.7
2022-08-29T05:13:59.533Z,-25.6
2022-08-29T05:16:01.033Z,-25.7
2022-08-29T05:18:02.934Z,-22.1
2022-08-29T05:20:04.245Z,-25.7
2022-08-29T05:22:06.143Z,-14
2022-08-29T05:24:08.441Z,-2.7
2022-08-29T05:26:18.166Z,1.1
2022-08-29T05:28:10.463Z,1
2022-08-29T05:30:11.638Z,-1.1
2022-08-29T05:34:32.694Z,8
2022-08-29T05:36:16.135Z,5.1
2022-08-29T05:38:27.786Z,4.4
2022-08-29T05:40:19.458Z,7.1
2022-08-29T05:42:20.680Z,-9.6
2022-08-29T05:44:22.388Z,-15.1
2022-08-29T05:46:23.804Z,-2.09
2022-08-29T05:48:25.063Z,-10.3
2022-08-29T05:50:26.370Z,-3.1
2022-08-29T05:52:27.675Z,7.5
2022-08-29T05:54:30.123Z,-4.19
2022-08-29T05:56:32.362Z,37.8
2022-08-29T05:58:32.780Z,-10
2022-08-29T06:00:33.764Z,26.8
2022-08-29T06:04:37.320Z,40.7
2022-08-29T06:06:38.978Z,50.8
2022-08-29T06:08:41.442Z,75.4
2022-08-29T06:12:43.992Z,73.6
2022-08-29T06:14:50.328Z,72.69
2022-08-29T06:16:46.526Z,72.1
2022-08-29T06:18:47.524Z,71.1
2022-08-29T06:20:49.270Z,69.8
2022-08-29T06:22:51.340Z,69.1
2022-08-29T06:24:52.546Z,68
2022-08-29T06:26:53.760Z,66.5
2022-08-29T06:28:54.782Z,66
2022-08-29T06:30:55.791Z,63.4
2022-08-29T06:34:58.829Z,60.9
2022-08-29T06:36:59.989Z,59.9
2022-08-29T06:39:10.855Z,59
2022-08-29T06:41:04.142Z,57.8
2022-08-29T06:43:05.288Z,56.2
2022-08-29T06:45:06.297Z,55.2
2022-08-29T06:47:07.815Z,53.6
2022-08-29T06:49:08.574Z,51.5
2022-08-29T06:51:09.399Z,49.9
2022-08-29T06:57:13.701Z,46.1
2022-08-29T06:59:15.337Z,44.6
2022-08-29T07:01:17.538Z,43.3
2022-08-29T07:03:17.357Z,37.59
2022-08-29T07:05:18.963Z,39.7
2022-08-29T07:07:19.777Z,38.4
2022-08-29T07:09:20.663Z,36.5
2022-08-29T07:11:22.449Z,35.8
2022-08-29T07:15:24.887Z,33.8
2022-08-29T07:17:26.274Z,31.8
2022-08-29T07:19:27.789Z,29.4
2022-08-29T07:21:29.160Z,29.1
2022-08-29T07:23:30.120Z,28.8
2022-08-29T07:25:31.606Z,26.3
2022-08-29T07:27:32.479Z,25.8
2022-08-29T07:29:33.349Z,25
2022-08-29T07:31:35.082Z,23.1
2022-08-29T07:33:36.695Z,22.3
2022-08-29T07:35:38.082Z,20.8
2022-08-29T07:39:41.100Z,18.2
2022-08-29T07:41:42.202Z,17.5
2022-08-29T07:43:43.657Z,15.8
2022-08-29T07:45:45.326Z,15.3
2022-08-29T07:47:46.854Z,15.3
2022-08-29T07:49:47.895Z,14.4
2022-08-29T07:51:49.586Z,14.7
2022-08-29T07:53:50.997Z,11.2
2022-08-29T07:55:51.870Z,-25.6
2022-08-29T07:57:53.216Z,-25.5
2022-08-29T08:05:58.335Z,-25.8
2022-08-29T08:08:03.430Z,-25.8
2022-08-29T08:10:00.863Z,-25.8
2022-08-29T08:12:04.997Z,-25.8
2022-08-29T08:14:03.075Z,-25.9
2022-08-29T08:16:04.077Z,-25.6
2022-08-29T08:18:05.223Z,-25.9
2022-08-29T08:20:06.481Z,-25.7
2022-08-29T08:22:08.213Z,-25.7
2022-08-29T08:24:09.526Z,-25.9
2022-08-29T08:28:11.992Z,-25.8
2022-08-29T08:30:13.439Z,-25.6
2022-08-29T08:32:15.218Z,-25.8
2022-08-29T08:38:19.146Z,-25.8
2022-08-29T08:40:20.440Z,-25.6
2022-08-29T08:42:24.767Z,-25.7
2022-08-29T08:44:22.617Z,-25.7
2022-08-29T08:46:23.930Z,-25.5
2022-08-29T08:48:25.428Z,-25.8
2022-08-29T08:50:26.704Z,-25.7
2022-08-29T08:52:27.990Z,-25.7
2022-08-29T08:54:29.174Z,-26
2022-08-29T08:58:31.922Z,-25.7
2022-08-29T09:04:34.862Z,-25.9
2022-08-29T09:06:36.435Z,-25.5
2022-08-29T09:08:37.248Z,-25.8
2022-08-29T09:10:38.754Z,-25.7
2022-08-29T09:12:40.494Z,-25.9
2022-08-29T09:14:41.497Z,-25.6
2022-08-29T09:16:43.021Z,-25.9
2022-08-29T09:18:44.130Z,-26
2022-08-29T09:20:45.890Z,-25.8
2022-08-29T09:22:47.372Z,-25.7
2022-08-29T09:24:48.949Z,-25.5
2022-08-29T09:26:50.594Z,-25.7
2022-08-29T09:28:51.859Z,-25.7
2022-08-29T09:30:53.160Z,-25.5
2022-08-29T09:32:54.214Z,-25.7
2022-08-29T09:35:08.267Z,-25.8
2022-08-29T09:36:56.644Z,-25.6
2022-08-29T09:38:57.467Z,-25.6
2022-08-29T09:41:06.361Z,-25.6
2022-08-29T09:47:02.554Z,-25.9
2022-08-29T09:51:04.900Z,-25.9
2022-08-29T09:53:08.106Z,-25.7
2022-08-29T09:55:07.978Z,-25.8
2022-08-29T09:57:08.760Z,-25.6
2022-08-29T09:59:09.601Z,-25.7
2022-08-29T10:01:11.612Z,-25.8
2022-08-29T10:03:12.196Z,-25.7
2022-08-29T10:05:13.432Z,-25.8
2022-08-29T10:07:14.314Z,-25.4
2022-08-29T10:09:15.241Z,-25.8
2022-08-29T10:11:16.840Z,-25.7
2022-08-29T10:13:18.201Z,-25.5
2022-08-29T10:19:22.525Z,-25.7
2022-08-29T10:21:23.886Z,-25.6
2022-08-29T10:23:25.343Z,-25.6
2022-08-29T10:25:26.635Z,-25.7
2022-08-29T10:27:27.468Z,-26
2022-08-29T10:29:31.524Z,-25.6
2022-08-29T10:33:30.992Z,-25.5
2022-08-29T10:35:32.402Z,-25.6
2022-08-29T10:37:33.293Z,-25.5
2022-08-29T10:39:34.734Z,-25.4
2022-08-29T10:45:38.188Z,-25.7
2022-08-29T10:47:39.043Z,-25.9
2022-08-29T10:49:43.057Z,-25.5
2022-08-29T10:51:40.963Z,-26
2022-08-29T10:53:42.632Z,-25.9
2022-08-29T10:55:43.760Z,-25.8
2022-08-29T10:57:44.876Z,-25.6
2022-08-29T10:59:45.654Z,-25.7
2022-08-29T11:01:46.586Z,-25.7
2022-08-29T11:03:47.793Z,-26
2022-08-29T11:05:48.747Z,-25.7
2022-08-29T11:07:50.066Z,-25.7
2022-08-29T11:09:51.385Z,-25.7
2022-08-29T11:11:52.604Z,-25.7
2022-08-29T11:13:54.033Z,-25.7
2022-08-29T11:15:54.980Z,-25.6
2022-08-29T11:17:56.324Z,-25.7
2022-08-29T11:19:57.913Z,-25.5
2022-08-29T11:21:59.087Z,-25.7
2022-08-29T11:24:00.654Z,-25.9
2022-08-29T11:26:01.580Z,-25.8
2022-08-29T11:28:46.779Z,-25.9
2022-08-29T11:32:49.384Z,-25.9
2022-08-29T11:34:50.319Z,-25.7
2022-08-29T11:36:51.766Z,-25.7
2022-08-29T11:38:52.623Z,-26
2022-08-29T11:42:54.970Z,-25.7
2022-08-29T11:44:56.227Z,-26
2022-08-29T11:46:57.443Z,-25.7
2022-08-29T11:48:59.829Z,-25.9
2022-08-29T11:53:00.686Z,-25.7
2022-08-29T11:55:01.492Z,-25.9
2022-08-29T11:57:02.933Z,-25.6
2022-08-29T11:59:04.609Z,-26
2022-08-29T12:01:05.432Z,-25.7
2022-08-29T12:03:14.878Z,-25.8
2022-08-29T12:05:07.780Z,-25.7
2022-08-29T12:07:08.552Z,-25.8
2022-08-29T12:09:13.285Z,-25.7
2022-08-29T12:11:10.694Z,-25.5
2022-08-29T12:13:11.693Z,-25.7
2022-08-29T12:15:12.545Z,-25.6
2022-08-29T12:19:14.789Z,-25.7
2022-08-29T12:21:16.292Z,-25.5
2022-08-29T12:23:17.999Z,-25.5
2022-08-29T12:25:19.206Z,-25.8
2022-08-29T12:27:20.381Z,-25.9
2022-08-29T12:29:21.519Z,-25.7
2022-08-29T12:31:23.055Z,-25.9
2022-08-29T12:33:24.409Z,-25.8
2022-08-29T12:35:25.337Z,-25.6
2022-08-29T12:37:26.768Z,-25.8
2022-08-29T12:39:28.158Z,-25.6
2022-08-29T12:41:29.047Z,-25.6
2022-08-29T12:43:30.514Z,-25.8
2022-08-29T12:45:31.437Z,-25.5
2022-08-29T12:47:32.923Z,-25.8
2022-08-29T12:53:37.029Z,-25.6
2022-08-29T12:55:38.026Z,-25.7
2022-08-29T12:57:39.108Z,-25.8
2022-08-29T12:59:40.457Z,-25.7
2022-08-29T13:01:41.553Z,-25.5
2022-08-29T13:03:42.560Z,-25.7
2022-08-29T13:07:45.457Z,66
2022-08-29T13:09:46.530Z,64.19
2022-08-29T13:11:47.539Z,63.5
2022-08-29T13:13:49.149Z,62.2
2022-08-29T13:19:52.161Z,57.8
2022-08-29T13:21:53.565Z,55.6
2022-08-29T13:23:54.979Z,54
2022-08-29T13:25:56.642Z,51
2022-08-29T13:28:01.518Z,49.5
2022-08-29T13:29:59.310Z,45.9
2022-08-29T13:32:00.031Z,42.6
2022-08-29T13:34:00.928Z,39.2
2022-08-29T13:36:01.779Z,36.59
2022-08-29T13:38:02.768Z,35.59
2022-08-29T13:40:04.421Z,32.5
2022-08-29T13:42:05.165Z,29.7
2022-08-29T13:44:06.774Z,27.8
2022-08-29T13:46:11.747Z,26.8
2022-08-29T13:48:10.177Z,25.1
2022-08-29T13:50:11.662Z,21.3
2022-08-29T13:52:12.677Z,21.1
2022-08-29T13:54:13.829Z,19.7
2022-08-29T13:56:14.838Z,18.5
2022-08-29T13:58:16.537Z,17.9
2022-08-29T14:00:17.592Z,17.6
2022-08-29T14:04:37.227Z,13.5
2022-08-29T14:06:21.487Z,13.9
2022-08-29T14:08:22.367Z,12.9
2022-08-29T14:12:30.445Z,11.2
2022-08-29T14:14:25.393Z,10.1
2022-08-29T14:16:26.891Z,8.6
2022-08-29T14:18:27.725Z,7.5
2022-08-29T14:22:29.820Z,-25.9
2022-08-29T14:24:31.351Z,-25.6
2022-08-29T14:26:32.487Z,-25.8
2022-08-29T14:32:35.818Z,-26
2022-08-29T14:34:37.199Z,-25.9
2022-08-29T14:36:41.808Z,-25.7
2022-08-29T14:38:39.715Z,-25.8
2022-08-29T14:40:41.179Z,-25.9
2022-08-29T14:42:42.648Z,-25.7
2022-08-29T14:44:44.022Z,-25.4
2022-08-29T14:46:44.833Z,-25.9
2022-08-29T14:48:46.231Z,-25.8
2022-08-29T14:50:47.081Z,-25.8
2022-08-29T14:52:48.535Z,-25.7
2022-08-29T14:54:49.302Z,-25.5
2022-08-29T14:56:50.718Z,-25.6
2022-08-29T14:58:51.971Z,-25.8
2022-08-29T15:00:54.248Z,-25.7
2022-08-29T15:04:55.564Z,-25.8
2022-08-29T15:06:56.841Z,-25.8
2022-08-29T15:08:58.339Z,-25.6
2022-08-29T15:10:59.169Z,-25.8
2022-08-29T15:12:59.978Z,-25.5
2022-08-29T15:17:02.807Z,-25.7
2022-08-29T15:21:05.135Z,-25.8
2022-08-29T15:23:06.195Z,-25.5
2022-08-29T15:25:07.569Z,-25.4
2022-08-29T15:27:08.737Z,-25.7
2022-08-29T15:33:12.540Z,-25.5
2022-08-29T15:35:14.390Z,-25.5
2022-08-29T15:37:14.223Z,-25.5
2022-08-29T15:39:15.890Z,-25.6
2022-08-29T15:41:16.993Z,-25.6
2022-08-29T15:43:18.281Z,-25.9
2022-08-29T15:47:19.937Z,-25.5
2022-08-29T15:49:20.814Z,-25.7
2022-08-29T15:51:21.599Z,-25.7
2022-08-29T15:53:22.934Z,-25.5
2022-08-29T15:55:24.158Z,-25.5
2022-08-29T15:57:25.200Z,-25.8
2022-08-29T15:59:41.398Z,-25.9
2022-08-29T16:03:29.662Z,-25.8
2022-08-29T16:05:31.377Z,-25.9
2022-08-29T16:07:32.804Z,-25.9
2022-08-29T16:09:33.841Z,-25.8
2022-08-29T16:15:37.517Z,-25.8
2022-08-29T16:17:38.355Z,-25.8
2022-08-29T16:19:39.278Z,-25.8
2022-08-29T16:21:40.831Z,-25.4
2022-08-29T16:23:42.047Z,-25.8
2022-08-29T16:25:44.235Z,-25.6
2022-08-29T16:29:46.001Z,-25.5
2022-08-29T16:31:46.883Z,-25.6
2022-08-29T16:33:48.625Z,-25.5
2022-08-29T16:35:50.362Z,-25.3
2022-08-29T16:38:02.358Z,-25.5
2022-08-29T16:39:52.751Z,-25.6
2022-08-29T16:41:54.206Z,-25.4
2022-08-29T16:43:54.962Z,-25.6
2022-08-29T16:45:56.558Z,-25.5
2022-08-29T16:47:57.864Z,-25.6
2022-08-29T16:49:58.432Z,-25.6
2022-08-29T16:51:59.546Z,-25.7
2022-08-29T16:54:00.604Z,-25.6
2022-08-29T16:56:01.565Z,-25.6
2022-08-29T16:58:02.785Z,-25.7
2022-08-29T17:00:03.582Z,-25.8
2022-08-29T17:02:04.552Z,-25.7
2022-08-29T17:04:06.099Z,-25.6
2022-08-29T17:08:08.919Z,-25.8
2022-08-29T17:10:10.230Z,-25.6
2022-08-29T17:12:11.901Z,-25.9
2022-08-29T17:14:13.484Z,-25.9
2022-08-29T17:20:17.142Z,-25.8
2022-08-29T17:22:18.163Z,-25.3
2022-08-29T17:24:19.660Z,-25.6
2022-08-29T17:26:20.956Z,-26
2022-08-29T17:28:22.657Z,-25.8
2022-08-29T17:30:24.306Z,-25.8
2022-08-29T17:34:27.124Z,-25.6
2022-08-29T17:36:27.963Z,-25.8
2022-08-29T17:38:29.147Z,-25.5
2022-08-29T17:40:30.180Z,-25.5
2022-08-29T17:46:34.046Z,-25.8
2022-08-29T17:48:35.236Z,-25.8
2022-08-29T17:50:36.860Z,-25.6
2022-08-29T17:52:37.958Z,-25.7
2022-08-29T17:54:39.687Z,-25.7
2022-08-29T17:56:41.981Z,-25.5
2022-08-29T17:58:41.550Z,-25.7
2022-08-29T18:00:42.541Z,-25.7
2022-08-29T18:02:43.618Z,-25.7
2022-08-29T18:04:44.631Z,-25.9
2022-08-29T18:06:45.660Z,-25.9
2022-08-29T18:08:48.311Z,-25.7
2022-08-29T18:10:48.866Z,-25.8
2022-08-29T18:13:34.212Z,-25.8
2022-08-29T18:15:35.754Z,-25.9
2022-08-29T18:17:37.130Z,-25.7
2022-08-29T18:21:39.519Z,-25.5
2022-08-29T18:23:40.373Z,-25.6
2022-08-29T18:25:41.839Z,-25.6
2022-08-29T18:27:43.745Z,-25.9
2022-08-29T18:29:44.086Z,-25.9
2022-08-29T18:31:45.504Z,-25.8
2022-08-29T18:33:59.934Z,-25.6
2022-08-29T18:35:47.807Z,-25.8
2022-08-29T18:37:49.151Z,-25.8
2022-08-29T18:39:50.717Z,-25.8
2022-08-29T18:41:51.624Z,-25.9
2022-08-29T18:43:52.990Z,-25.8
2022-08-29T18:45:54.333Z,-25.5
2022-08-29T18:47:55.370Z,-25.8
2022-08-29T18:49:57.225Z,-25.8
2022-08-29T18:54:08.611Z,-25.8
2022-08-29T18:56:00.986Z,-25.7
2022-08-29T18:58:01.993Z,-25.9
2022-08-29T19:00:03.928Z,-25.8
2022-08-29T19:02:05.675Z,-25.7
2022-08-29T19:04:06.940Z,-25.7
2022-08-29T19:06:08.776Z,-25.8
2022-08-29T19:10:10.887Z,-25.7
2022-08-29T19:12:12.421Z,-25.6
2022-08-29T19:14:13.915Z,-26
2022-08-29T19:16:15.335Z,-26
2022-08-29T19:18:16.725Z,-26.2
2022-08-29T19:20:17.464Z,-25.9
2022-08-29T19:22:18.938Z,-26
2022-08-29T19:24:20.243Z,-25.8
2022-08-29T19:26:21.208Z,-25.7
2022-08-29T19:28:22.818Z,-25.7
2022-08-29T19:30:24.176Z,-25.7
2022-08-29T19:34:27.031Z,-25.9
2022-08-29T19:36:28.085Z,-25.9
2022-08-29T19:38:29.277Z,-25.9
2022-08-29T19:40:33.795Z,-26
2022-08-29T19:42:32.304Z,-25.8
2022-08-29T19:44:34.340Z,-26.1
2022-08-29T19:46:34.834Z,-25.7
2022-08-29T19:48:35.787Z,-25.8
2022-08-29T19:50:37.407Z,-25.7
2022-08-29T19:52:39.023Z,-25.7
2022-08-29T19:54:40.817Z,-25.8
2022-08-29T19:56:42.115Z,-25.9
2022-08-29T19:58:43.782Z,-25.5
2022-08-29T20:00:44.982Z,-25.8
2022-08-29T20:02:46.464Z,-25.9
2022-08-29T20:04:47.853Z,-25.8
2022-08-29T20:06:48.840Z,-25.7
2022-08-29T20:08:50.655Z,-26
2022-08-29T20:10:52.026Z,-25.9
2022-08-29T20:12:53.099Z,-25.7
2022-08-29T20:14:54.905Z,-25.8
2022-08-29T20:16:55.944Z,-25.9
2022-08-29T20:20:59.006Z,-25.8
2022-08-29T20:23:00.160Z,-25.7
2022-08-29T20:25:01.970Z,-25.9
2022-08-29T20:27:02.886Z,-25.7
2022-08-29T20:29:03.926Z,-25.7
2022-08-29T20:31:05.322Z,-26
2022-08-29T20:37:09.078Z,-25.8
2022-08-29T20:39:10.099Z,-25.7
2022-08-29T20:41:11.422Z,-25.7
2022-08-29T20:43:13.057Z,-25.6
2022-08-29T20:45:14.582Z,-25.7
2022-08-29T20:47:15.685Z,-25.7
2022-08-29T20:49:17.242Z,-25.9
2022-08-29T20:51:18.577Z,-25.9
2022-08-29T20:53:32.175Z,-25.8
2022-08-29T20:57:23.022Z,-25.8
2022-08-29T20:59:26.421Z,-26
2022-08-29T21:01:26.171Z,-26.1
2022-08-29T21:03:27.081Z,-25.7
2022-08-29T21:07:28.981Z,-25.9
2022-08-29T21:09:30.052Z,-25.7
2022-08-29T21:11:31.325Z,-26
2022-08-29T21:13:33.155Z,-25.9
2022-08-29T21:15:34.491Z,-26
2022-08-29T21:17:35.511Z,-25.7
2022-08-29T21:19:37.245Z,-25.8
2022-08-29T21:21:39.128Z,-26
2022-08-29T21:23:40.893Z,-25.9
2022-08-29T21:25:42.491Z,-25.7
2022-08-29T21:27:43.814Z,-25.7
2022-08-29T21:29:44.852Z,-25.9
2022-08-29T21:35:49.847Z,-25.5
2022-08-29T21:37:50.692Z,-25.7
2022-08-29T21:39:52.545Z,-25.6
2022-08-29T21:41:53.573Z,-26
2022-08-29T21:45:57.198Z,-25.8
2022-08-29T21:47:58.922Z,-25.8
2022-08-29T21:50:00.110Z,-26
2022-08-29T21:52:01.842Z,-25.9
2022-08-29T21:54:03.572Z,-25.5
2022-08-29T21:56:04.842Z,-26
2022-08-29T22:00:07.691Z,-25.7
2022-08-29T22:02:08.687Z,-25.7
2022-08-29T22:04:10.274Z,-25.8
2022-08-29T22:06:11.781Z,-25.7
2022-08-29T22:08:13.307Z,-25.9
2022-08-29T22:10:14.749Z,-25.8
2022-08-29T22:12:16.564Z,-25.7
2022-08-29T22:14:17.710Z,-26
2022-08-29T22:16:19.242Z,-25.8
2022-08-29T22:18:20.966Z,-25.9
2022-08-29T22:20:22.217Z,-25.8
2022-08-29T22:22:24.081Z,-25.7
2022-08-29T22:24:25.655Z,-25.8
2022-08-29T22:26:27.157Z,-25.9
2022-08-29T22:28:29.012Z,-25.8
2022-08-29T22:30:32.223Z,-25.7
2022-08-29T22:32:35.968Z,-26
2022-08-29T22:34:34.271Z,-25.8
2022-08-29T22:36:35.509Z,-25.8
2022-08-29T22:38:36.822Z,-25.8
2022-08-29T22:45:03.075Z,-25.8
2022-08-29T22:46:42.273Z,-25.8
2022-08-29T22:48:43.234Z,-25.6
2022-08-29T22:50:45.067Z,-25.8
2022-08-29T22:52:46.051Z,-26.2
2022-08-29T22:54:47.802Z,-25.9
2022-08-29T22:56:49.464Z,-25.9
2022-08-29T22:58:50.760Z,-25.7
2022-08-29T23:00:51.704Z,-25.8
2022-08-29T23:02:53.608Z,-26.1
2022-08-29T23:04:54.753Z,-25.7
2022-08-29T23:06:55.987Z,-26
2022-08-29T23:08:57.485Z,-25.6
2022-08-29T23:10:59.272Z,-25.9
2022-08-29T23:13:01.018Z,-25.8
2022-08-29T23:15:02.523Z,-25.7
2022-08-29T23:17:04.120Z,-25.9
2022-08-29T23:19:05.853Z,-26.1
2022-08-29T23:21:07.573Z,-25.9
2022-08-29T23:23:09.425Z,-25.9
2022-08-29T23:27:13.037Z,-26
2022-08-29T23:31:16.731Z,-26
2022-08-29T23:33:17.808Z,-25.8
2022-08-29T23:35:18.960Z,-26
2022-08-29T23:37:20.294Z,-26.5
2022-08-29T23:39:21.310Z,-26.4
2022-08-29T23:41:22.275Z,-26.1
2022-08-29T23:43:23.598Z,-26.1
2022-08-29T23:45:25.117Z,-26.3
2022-08-29T23:47:26.741Z,-25.8
2022-08-29T23:49:28.248Z,-26.1
2022-08-29T23:53:30.807Z,-26.3
2022-08-29T23:55:32.500Z,-26
2022-08-29T23:57:33.993Z,-26.1
2022-08-29T23:59:35.400Z,-26.1
